createdAt,value
2017-07-06T00:01:01.132Z,100698.00
2017-07-06T00:03:30.210Z,100697.66
2017-07-06T00:05:59.321Z,100698.76
2017-07-06T00:08:28.416Z,100695.91
2017-07-06T00:10:57.481Z,100696.45
2017-07-06T00:13:26.552Z,100697.76
2017-07-06T00:15:55.641Z,100692.52
2017-07-06T00:18:24.680Z,100694.97
2017-07-06T00:20:53.777Z,100692.33
2017-07-06T00:23:22.843Z,100695.52
2017-07-06T00:25:51.905Z,100689.75
2017-07-06T00:28:20.989Z,100693.99
2017-07-06T00:30:50.053Z,100687.01
2017-07-06T00:33:19.161Z,100695.06
2017-07-06T00:35:48.195Z,100691.93
2017-07-06T00:38:17.270Z,100693.55
2017-07-06T00:40:46.342Z,100696.39
2017-07-06T00:43:15.412Z,100698.08
2017-07-06T00:45:44.529Z,100699.03
2017-07-06T00:48:13.912Z,100697.50
2017-07-06T00:50:42.965Z,100701.16
2017-07-06T00:53:12.102Z,100698.00
2017-07-06T00:55:42.670Z,100702.38
2017-07-06T00:58:13.597Z,100710.55
2017-07-06T01:00:42.668Z,100702.23
2017-07-06T01:03:11.749Z,100702.73
2017-07-06T01:05:40.795Z,100707.79
2017-07-06T01:08:10.125Z,100698.47
2017-07-06T01:10:39.192Z,100698.45
2017-07-06T01:13:08.260Z,100702.05
2017-07-06T01:15:37.344Z,100701.28
2017-07-06T01:18:07.090Z,100695.86
2017-07-06T01:20:36.190Z,100695.98
2017-07-06T01:23:05.236Z,100698.34
2017-07-06T01:25:34.302Z,100701.09
2017-07-06T01:28:03.407Z,100693.60
2017-07-06T01:30:32.477Z,100702.48
2017-07-06T01:33:01.569Z,100694.34
2017-07-06T01:35:30.662Z,100706.64
2017-07-06T01:37:59.716Z,100704.26
2017-07-06T01:40:28.813Z,100703.53
2017-07-06T01:42:57.881Z,100705.66
2017-07-06T01:45:27.004Z,100701.27
2017-07-06T01:47:56.056Z,100700.69
2017-07-06T01:50:25.189Z,100706.09
2017-07-06T01:52:54.292Z,100699.67
2017-07-06T01:55:23.409Z,100704.07
2017-07-06T01:57:52.476Z,100693.84
2017-07-06T02:00:21.565Z,100702.84
2017-07-06T02:02:50.645Z,100705.23
2017-07-06T02:05:19.782Z,100702.30
2017-07-06T02:07:48.816Z,100713.39
2017-07-06T02:10:17.938Z,100707.45
2017-07-06T02:12:47.007Z,100713.94
2017-07-06T02:15:16.078Z,100712.61
2017-07-06T02:17:45.184Z,100716.48
2017-07-06T02:20:14.313Z,100710.99
2017-07-06T02:22:43.402Z,100714.29
2017-07-06T02:25:12.456Z,100708.72
2017-07-06T02:27:41.503Z,100708.72
2017-07-06T02:30:10.584Z,100718.53
2017-07-06T02:32:39.687Z,100719.54
2017-07-06T02:35:08.806Z,100717.73
2017-07-06T02:37:37.861Z,100719.20
2017-07-06T02:40:06.963Z,100721.05
2017-07-06T02:42:36.105Z,100717.95
2017-07-06T02:45:05.174Z,100716.47
2017-07-06T02:47:34.281Z,100715.13
2017-07-06T02:50:03.360Z,100704.78
2017-07-06T02:52:32.445Z,100706.55
2017-07-06T02:55:01.924Z,100707.12
2017-07-06T02:57:31.037Z,100712.14
2017-07-06T03:00:00.091Z,100715.08
2017-07-06T03:02:29.169Z,100713.85
2017-07-06T03:04:58.255Z,100718.81
2017-07-06T03:07:27.349Z,100725.28
2017-07-06T03:09:56.443Z,100727.81
2017-07-06T03:12:26.269Z,100724.73
2017-07-06T03:14:55.371Z,100726.77
2017-07-06T03:17:24.442Z,100729.63
2017-07-06T03:19:53.550Z,100731.39
2017-07-06T03:22:22.640Z,100728.36
2017-07-06T03:24:52.144Z,100735.29
2017-07-06T03:27:21.200Z,100736.34
2017-07-06T03:29:50.301Z,100738.55
2017-07-06T03:32:19.523Z,100735.91
2017-07-06T03:34:48.585Z,100729.94
2017-07-06T03:37:17.649Z,100730.88
2017-07-06T03:39:46.756Z,100733.27
2017-07-06T03:42:15.815Z,100732.11
2017-07-06T03:44:44.893Z,100727.41
2017-07-06T03:47:13.993Z,100729.11
2017-07-06T03:49:43.020Z,100730.08
2017-07-06T03:52:12.164Z,100732.83
2017-07-06T03:54:41.221Z,100725.28
2017-07-06T03:57:10.452Z,100724.73
2017-07-06T03:59:39.507Z,100728.70
2017-07-06T04:02:08.592Z,100730.95
2017-07-06T04:04:37.656Z,100730.34
2017-07-06T04:07:06.767Z,100738.25
2017-07-06T04:09:35.857Z,100728.25
2017-07-06T04:12:04.920Z,100735.00
2017-07-06T04:14:34.003Z,100736.70
2017-07-06T04:17:03.093Z,100735.91
2017-07-06T04:19:32.177Z,100737.14
2017-07-06T04:22:01.224Z,100735.77
2017-07-06T04:24:30.293Z,100746.97
2017-07-06T04:26:59.347Z,100746.75
2017-07-06T04:29:28.428Z,100751.38
2017-07-06T04:31:57.556Z,100751.74
2017-07-06T04:34:26.593Z,100752.24
2017-07-06T04:36:55.653Z,100757.34
2017-07-06T04:39:24.731Z,100770.96
2017-07-06T04:41:53.772Z,100764.53
2017-07-06T04:44:22.850Z,100774.55
2017-07-06T04:46:51.901Z,100773.17
2017-07-06T04:49:20.987Z,100779.68
2017-07-06T04:51:50.051Z,100765.93
2017-07-06T04:54:20.024Z,100769.62
2017-07-06T04:56:49.088Z,100767.94
2017-07-06T04:59:18.163Z,100766.83
2017-07-06T05:01:47.228Z,100770.94
2017-07-06T05:04:16.327Z,100764.80
2017-07-06T05:06:45.404Z,100763.97
2017-07-06T05:09:14.501Z,100766.83
2017-07-06T05:11:43.588Z,100766.86
2017-07-06T05:14:12.693Z,100769.47
2017-07-06T05:16:41.772Z,100767.54
2017-07-06T05:19:11.104Z,100758.87
2017-07-06T05:21:40.203Z,100761.26
2017-07-06T05:24:09.305Z,100764.22
2017-07-06T05:26:38.365Z,100762.94
2017-07-06T05:29:07.437Z,100764.89
2017-07-06T05:31:36.493Z,100764.91
2017-07-06T05:34:05.537Z,100768.87
2017-07-06T05:36:34.645Z,100765.03
2017-07-06T05:39:03.844Z,100762.59
2017-07-06T05:41:32.930Z,100761.47
2017-07-06T05:44:01.969Z,100759.72
2017-07-06T05:46:31.044Z,100757.94
2017-07-06T05:49:00.120Z,100758.62
2017-07-06T05:51:29.221Z,100763.09
2017-07-06T05:53:58.292Z,100759.89
2017-07-06T05:56:27.345Z,100757.98
2017-07-06T05:58:56.399Z,100757.01
2017-07-06T06:01:25.518Z,100758.34
2017-07-06T06:03:54.559Z,100754.90
2017-07-06T06:06:23.613Z,100762.77
2017-07-06T06:08:52.703Z,100764.95
2017-07-06T06:11:21.787Z,100757.21
2017-07-06T06:13:50.859Z,100757.36
2017-07-06T06:16:19.924Z,100761.28
2017-07-06T06:18:49.080Z,100759.94
2017-07-06T06:21:18.190Z,100756.03
2017-07-06T06:23:47.223Z,100761.77
2017-07-06T06:26:16.309Z,100762.70
2017-07-06T06:28:45.360Z,100760.13
2017-07-06T06:31:14.455Z,100762.44
2017-07-06T06:33:43.560Z,100763.59
2017-07-06T06:36:12.612Z,100762.25
2017-07-06T06:38:41.660Z,100762.98
2017-07-06T06:41:10.751Z,100769.94
2017-07-06T06:43:39.827Z,100763.13
2017-07-06T06:46:08.930Z,100761.99
2017-07-06T06:48:37.987Z,100753.34
2017-07-06T06:51:07.095Z,100758.76
2017-07-06T06:53:36.143Z,100757.30
2017-07-06T06:56:05.215Z,100761.05
2017-07-06T06:58:34.775Z,100759.03
2017-07-06T07:01:03.866Z,100760.65
2017-07-06T07:03:32.925Z,100761.97
2017-07-06T07:06:01.974Z,100767.62
2017-07-06T07:08:31.047Z,100769.46
2017-07-06T07:11:00.110Z,100771.72
2017-07-06T07:13:29.221Z,100768.16
2017-07-06T07:15:58.291Z,100768.15
2017-07-06T07:18:27.545Z,100767.56
2017-07-06T07:20:56.615Z,100772.50
2017-07-06T07:23:25.700Z,100775.63
2017-07-06T07:25:54.774Z,100780.40
2017-07-06T07:28:23.824Z,100781.92
2017-07-06T07:30:52.901Z,100777.93
2017-07-06T07:33:21.978Z,100784.44
2017-07-06T07:35:51.067Z,100787.13
2017-07-06T07:38:20.156Z,100780.16
2017-07-06T07:40:49.278Z,100774.79
2017-07-06T07:43:18.385Z,100771.68
2017-07-06T07:45:47.494Z,100770.14
2017-07-06T07:48:16.566Z,100766.45
2017-07-06T07:50:45.640Z,100766.40
2017-07-06T07:53:14.721Z,100768.27
2017-07-06T07:55:43.791Z,100773.84
2017-07-06T07:58:12.893Z,100766.39
2017-07-06T08:00:41.960Z,100773.03
2017-07-06T08:03:11.004Z,100778.23
2017-07-06T08:05:40.114Z,100783.39
2017-07-06T08:08:09.184Z,100777.56
2017-07-06T08:10:38.241Z,100780.09
2017-07-06T08:13:07.325Z,100776.28
2017-07-06T08:15:36.421Z,100772.17
2017-07-06T08:18:05.489Z,100777.88
2017-07-06T08:20:34.543Z,100771.64
2017-07-06T08:23:03.622Z,100775.50
2017-07-06T08:25:32.677Z,100768.04
2017-07-06T08:28:01.758Z,100770.02
2017-07-06T08:30:30.820Z,100768.72
2017-07-06T08:33:00.167Z,100765.07
2017-07-06T08:35:29.225Z,100760.81
2017-07-06T08:37:58.286Z,100756.63
2017-07-06T08:40:27.354Z,100754.41
2017-07-06T08:42:56.411Z,100757.59
2017-07-06T08:45:25.513Z,100758.44
2017-07-06T08:47:55.612Z,100759.22
2017-07-06T08:50:24.661Z,100766.44
2017-07-06T08:52:53.728Z,100760.59
2017-07-06T08:55:23.026Z,100763.53
2017-07-06T08:57:52.100Z,100757.19
2017-07-06T09:00:21.239Z,100758.92
2017-07-06T09:02:50.309Z,100748.16
2017-07-06T09:05:19.430Z,100745.31
2017-07-06T09:07:48.481Z,100753.58
2017-07-06T09:10:17.518Z,100739.47
2017-07-06T09:12:46.589Z,100745.59
2017-07-06T09:15:15.691Z,100733.20
2017-07-06T09:17:44.820Z,100730.91
2017-07-06T09:20:13.947Z,100723.55
2017-07-06T09:22:43.031Z,100719.28
2017-07-06T09:25:12.133Z,100721.70
2017-07-06T09:27:41.197Z,100712.33
2017-07-06T09:30:10.312Z,100709.39
2017-07-06T09:32:39.350Z,100708.13
2017-07-06T09:35:08.443Z,100699.55
2017-07-06T09:37:37.507Z,100691.55
2017-07-06T09:40:06.551Z,100692.94
2017-07-06T09:42:35.633Z,100683.03
2017-07-06T09:45:04.726Z,100686.45
2017-07-06T09:47:33.774Z,100695.05
2017-07-06T09:50:02.971Z,100701.98
2017-07-06T09:52:32.069Z,100700.68
2017-07-06T09:55:01.128Z,100703.62
2017-07-06T09:57:30.248Z,100697.98
2017-07-06T09:59:59.328Z,100707.10
2017-07-06T10:02:28.389Z,100705.74
2017-07-06T10:04:57.441Z,100707.05
2017-07-06T10:07:26.721Z,100706.93
2017-07-06T10:09:55.808Z,100699.81
2017-07-06T10:12:25.475Z,100703.20
2017-07-06T10:14:54.573Z,100700.94
2017-07-06T10:17:23.617Z,100698.02
2017-07-06T10:19:52.726Z,100689.08
2017-07-06T10:22:21.816Z,100685.18
2017-07-06T10:24:50.857Z,100686.02
2017-07-06T10:27:19.961Z,100684.43
2017-07-06T10:29:49.033Z,100679.14
2017-07-06T10:32:18.105Z,100677.99
2017-07-06T10:34:47.168Z,100680.50
2017-07-06T10:37:16.282Z,100676.13
2017-07-06T10:39:45.342Z,100682.39
2017-07-06T10:42:14.401Z,100682.00
2017-07-06T10:44:43.513Z,100683.22
2017-07-06T10:47:12.570Z,100688.11
2017-07-06T10:49:41.671Z,100689.52
2017-07-06T10:52:10.810Z,100686.25
2017-07-06T10:54:39.875Z,100679.32
2017-07-06T10:57:08.956Z,100683.69
2017-07-06T10:59:38.054Z,100679.88
2017-07-06T11:02:07.116Z,100676.47
2017-07-06T11:04:36.414Z,100679.05
2017-07-06T11:07:05.541Z,100677.98
2017-07-06T11:09:34.672Z,100677.83
2017-07-06T11:12:03.765Z,100677.33
2017-07-06T11:14:32.856Z,100681.20
2017-07-06T11:17:01.957Z,100675.66
2017-07-06T11:19:31.026Z,100678.80
2017-07-06T11:22:00.096Z,100676.43
2017-07-06T11:24:29.172Z,100668.61
2017-07-06T11:26:58.242Z,100670.39
2017-07-06T11:29:27.300Z,100661.19
2017-07-06T11:31:56.394Z,100653.91
2017-07-06T11:34:25.452Z,100656.39
2017-07-06T11:36:54.557Z,100662.45
2017-07-06T11:39:23.630Z,100660.16
2017-07-06T11:41:52.709Z,100668.70
2017-07-06T11:44:21.748Z,100660.41
2017-07-06T11:46:50.800Z,100663.22
2017-07-06T11:49:19.909Z,100662.68
2017-07-06T11:51:48.961Z,100653.61
2017-07-06T11:54:18.028Z,100652.20
2017-07-06T11:56:47.145Z,100644.79
2017-07-06T11:59:16.201Z,100649.17
2017-07-06T12:01:45.237Z,100650.25
2017-07-06T12:04:14.312Z,100652.69
2017-07-06T12:06:43.389Z,100649.15
2017-07-06T12:09:12.465Z,100640.09
2017-07-06T12:11:41.549Z,100645.83
2017-07-06T12:14:10.604Z,100645.55
2017-07-06T12:16:39.694Z,100647.05
2017-07-06T12:19:08.766Z,100647.31
2017-07-06T12:21:37.872Z,100643.01
2017-07-06T12:24:06.935Z,100641.62
2017-07-06T12:26:35.987Z,100641.57
2017-07-06T12:29:05.123Z,100638.48
2017-07-06T12:31:34.212Z,100628.80
2017-07-06T12:34:03.271Z,100623.94
2017-07-06T12:36:32.317Z,100617.90
2017-07-06T12:39:01.417Z,100615.22
2017-07-06T12:41:30.510Z,100605.73
2017-07-06T12:43:59.532Z,100609.80
2017-07-06T12:46:28.651Z,100603.17
2017-07-06T12:48:57.713Z,100601.94
2017-07-06T12:51:26.805Z,100603.90
2017-07-06T12:53:55.852Z,100594.89
2017-07-06T12:56:24.917Z,100590.33
2017-07-06T12:58:54.004Z,100595.09
2017-07-06T13:01:23.067Z,100594.30
2017-07-06T13:03:52.132Z,100593.08
2017-07-06T13:06:21.207Z,100601.77
2017-07-06T13:08:50.316Z,100606.30
2017-07-06T13:11:19.388Z,100611.31
2017-07-06T13:13:48.458Z,100616.20
2017-07-06T13:16:17.532Z,100608.27
2017-07-06T13:18:46.611Z,100597.69
2017-07-06T13:21:15.679Z,100593.55
2017-07-06T13:23:44.711Z,100593.33
2017-07-06T13:26:13.812Z,100587.97
2017-07-06T13:28:42.901Z,100585.17
2017-07-06T13:31:11.989Z,100576.00
2017-07-06T13:33:41.055Z,100574.69
2017-07-06T13:36:10.146Z,100571.41
2017-07-06T13:38:39.182Z,100570.51
2017-07-06T13:41:08.267Z,100570.69
2017-07-06T13:43:37.372Z,100562.13
2017-07-06T13:46:06.423Z,100565.32
2017-07-06T13:48:39.301Z,100558.84
2017-07-06T13:51:08.354Z,100559.44
2017-07-06T13:53:37.469Z,100559.39
2017-07-06T13:56:06.571Z,100561.36
2017-07-06T13:58:35.749Z,100553.73
2017-07-06T14:01:04.804Z,100543.57
2017-07-06T14:03:34.688Z,100540.97
2017-07-06T14:06:03.810Z,100538.53
2017-07-06T14:08:33.759Z,100534.71
2017-07-06T14:11:04.263Z,100536.92
2017-07-06T14:13:33.656Z,100532.36
2017-07-06T14:16:03.519Z,100540.53
2017-07-06T14:18:32.579Z,100538.94
2017-07-06T14:21:02.481Z,100536.92
2017-07-06T14:23:31.528Z,100538.09
2017-07-06T14:26:00.575Z,100537.63
2017-07-06T14:28:29.660Z,100532.97
2017-07-06T14:30:58.745Z,100529.07
2017-07-06T14:33:27.805Z,100526.51
2017-07-06T14:35:56.890Z,100520.83
2017-07-06T14:38:25.925Z,100518.33
2017-07-06T14:40:54.993Z,100517.07
2017-07-06T14:43:24.046Z,100509.41
2017-07-06T14:45:53.890Z,100505.09
2017-07-06T14:48:22.967Z,100508.20
2017-07-06T14:50:52.035Z,100504.44
2017-07-06T14:53:21.089Z,100504.86
2017-07-06T14:55:50.170Z,100508.84
2017-07-06T14:58:19.249Z,100506.41
2017-07-06T15:00:48.318Z,100506.84
2017-07-06T15:03:18.181Z,100504.39
2017-07-06T15:05:47.249Z,100508.17
2017-07-06T15:08:16.344Z,100505.78
2017-07-06T15:10:45.426Z,100507.46
2017-07-06T15:13:14.484Z,100497.22
2017-07-06T15:15:43.564Z,100488.85
2017-07-06T15:18:12.826Z,100482.83
2017-07-06T15:20:41.888Z,100475.27
2017-07-06T15:23:10.956Z,100465.81
2017-07-06T15:25:41.011Z,100467.72
2017-07-06T15:28:10.892Z,100457.45
2017-07-06T15:30:39.942Z,100454.23
2017-07-06T15:33:09.785Z,100450.11
2017-07-06T15:35:38.889Z,100450.08
2017-07-06T15:38:07.985Z,100448.17
2017-07-06T15:40:37.084Z,100452.39
2017-07-06T15:43:06.140Z,100452.38
2017-07-06T15:45:35.212Z,100452.09
2017-07-06T15:48:05.273Z,100447.92
2017-07-06T15:50:34.333Z,100447.41
2017-07-06T15:53:04.193Z,100445.02
2017-07-06T15:55:33.284Z,100435.48
2017-07-06T15:58:02.340Z,100432.53
2017-07-06T16:00:31.437Z,100416.28
2017-07-06T16:03:00.485Z,100404.46
2017-07-06T16:05:29.581Z,100395.43
2017-07-06T16:07:58.644Z,100401.45
2017-07-06T16:10:27.728Z,100420.48
2017-07-06T16:12:56.785Z,100429.84
2017-07-06T16:15:25.939Z,100431.93
2017-07-06T16:17:55.041Z,100438.80
2017-07-06T16:20:24.126Z,100447.05
2017-07-06T16:22:53.213Z,100450.72
2017-07-06T16:25:22.281Z,100447.30
2017-07-06T16:27:53.197Z,100449.69
2017-07-06T16:30:22.230Z,100443.81
2017-07-06T16:32:51.321Z,100442.21
2017-07-06T16:35:21.156Z,100422.60
2017-07-06T16:37:50.192Z,100418.65
2017-07-06T16:40:19.445Z,100412.90
2017-07-06T16:42:48.532Z,100402.52
2017-07-06T16:45:17.918Z,100408.11
2017-07-06T16:47:47.756Z,100417.98
2017-07-06T16:50:16.843Z,100414.44
2017-07-06T16:52:45.927Z,100408.59
2017-07-06T16:55:15.017Z,100407.98
2017-07-06T16:57:44.159Z,100417.72
2017-07-06T17:00:13.267Z,100416.98
2017-07-06T17:02:42.360Z,100414.36
2017-07-06T17:05:11.674Z,100404.02
2017-07-06T17:07:40.738Z,100396.66
2017-07-06T17:10:09.827Z,100402.64
2017-07-06T17:12:39.630Z,100405.05
2017-07-06T17:15:08.885Z,100415.41
2017-07-06T17:17:37.944Z,100408.16
2017-07-06T17:20:07.044Z,100409.16
2017-07-06T17:22:36.849Z,100410.39
2017-07-06T17:25:05.908Z,100405.80
2017-07-06T17:27:34.980Z,100406.75
2017-07-06T17:30:04.835Z,100411.80
2017-07-06T17:32:33.899Z,100419.78
2017-07-06T17:35:03.770Z,100414.51
2017-07-06T17:37:32.815Z,100418.04
2017-07-06T17:40:01.908Z,100416.33
2017-07-06T17:42:30.991Z,100415.27
2017-07-06T17:45:00.048Z,100420.53
2017-07-06T17:47:29.123Z,100409.03
2017-07-06T17:49:58.214Z,100403.02
2017-07-06T17:52:27.313Z,100391.17
2017-07-06T17:54:56.373Z,100390.05
2017-07-06T17:57:25.460Z,100384.87
2017-07-06T17:59:55.280Z,100389.20
2017-07-06T18:02:24.441Z,100391.09
2017-07-06T18:04:53.525Z,100392.73
2017-07-06T18:07:22.610Z,100388.98
2017-07-06T18:09:51.706Z,100390.87
2017-07-06T18:12:20.823Z,100381.02
2017-07-06T18:14:51.756Z,100372.80
2017-07-06T18:17:21.818Z,100377.03
2017-07-06T18:19:51.735Z,100397.50
2017-07-06T18:22:20.786Z,100406.49
2017-07-06T18:24:49.904Z,100413.02
2017-07-06T18:27:18.983Z,100408.19
2017-07-06T18:29:48.095Z,100409.02
2017-07-06T18:32:17.273Z,100409.87
2017-07-06T18:34:46.342Z,100399.13
2017-07-06T18:37:15.475Z,100383.95
2017-07-06T18:39:44.552Z,100378.97
2017-07-06T18:42:13.705Z,100373.66
2017-07-06T18:44:42.815Z,100382.94
2017-07-06T18:47:11.922Z,100392.58
2017-07-06T18:49:41.927Z,100406.43
2017-07-06T18:52:10.997Z,100403.16
2017-07-06T18:54:40.856Z,100399.67
2017-07-06T18:57:09.948Z,100405.77
2017-07-06T18:59:39.055Z,100410.06
2017-07-06T19:02:08.160Z,100400.22
2017-07-06T19:04:37.209Z,100405.74
2017-07-06T19:07:07.060Z,100410.25
2017-07-06T19:09:36.124Z,100418.55
2017-07-06T19:12:05.293Z,100411.98
2017-07-06T19:14:35.152Z,100408.52
2017-07-06T19:17:04.214Z,100405.45
2017-07-06T19:19:33.290Z,100414.25
2017-07-06T19:22:02.365Z,100418.10
2017-07-06T19:24:31.445Z,100413.81
2017-07-06T19:27:00.525Z,100407.70
2017-07-06T19:29:29.593Z,100396.42
2017-07-06T19:31:58.691Z,100393.17
2017-07-06T19:34:28.041Z,100393.27
2017-07-06T19:36:57.097Z,100383.04
2017-07-06T19:39:26.173Z,100376.81
2017-07-06T19:41:55.247Z,100366.95
2017-07-06T19:44:25.083Z,100367.86
2017-07-06T19:46:54.443Z,100370.95
2017-07-06T19:49:23.525Z,100377.72
2017-07-06T19:51:52.684Z,100375.98
2017-07-06T19:54:21.684Z,100372.03
2017-07-06T19:56:50.765Z,100374.05
2017-07-06T19:59:19.826Z,100367.09
2017-07-06T20:01:49.222Z,100348.45
2017-07-06T20:04:18.613Z,100349.16
2017-07-06T20:06:47.653Z,100360.70
2017-07-06T20:09:16.738Z,100361.90
2017-07-06T20:11:46.560Z,100348.80
2017-07-06T20:14:15.693Z,100336.78
2017-07-06T20:16:44.757Z,100340.02
2017-07-06T20:19:13.870Z,100347.04
2017-07-06T20:21:43.705Z,100338.84
2017-07-06T20:24:12.785Z,100339.34
2017-07-06T20:26:41.835Z,100346.33
2017-07-06T20:29:10.883Z,100353.12
2017-07-06T20:31:39.974Z,100350.22
2017-07-06T20:34:09.075Z,100342.50
2017-07-06T20:36:38.232Z,100332.27
2017-07-06T20:39:08.097Z,100317.82
2017-07-06T20:41:37.144Z,100316.47
2017-07-06T20:44:06.288Z,100327.56
2017-07-06T20:46:35.401Z,100328.19
2017-07-06T20:49:04.555Z,100336.38
2017-07-06T20:51:33.602Z,100343.72
2017-07-06T20:54:02.704Z,100350.64
2017-07-06T20:56:32.632Z,100363.70
2017-07-06T20:59:02.463Z,100370.20
2017-07-06T21:01:31.761Z,100375.17
2017-07-06T21:04:00.849Z,100356.13
2017-07-06T21:06:29.961Z,100349.95
2017-07-06T21:08:59.072Z,100350.14
2017-07-06T21:11:28.157Z,100352.76
2017-07-06T21:13:57.464Z,100356.59
2017-07-06T21:16:26.512Z,100365.16
2017-07-06T21:18:56.360Z,100364.98
2017-07-06T21:21:25.477Z,100354.11
2017-07-06T21:23:54.529Z,100343.02
2017-07-06T21:26:23.589Z,100355.09
2017-07-06T21:28:52.681Z,100372.73
2017-07-06T21:31:21.744Z,100394.95
2017-07-06T21:33:50.873Z,100445.68
2017-07-06T21:36:19.926Z,100484.11
2017-07-06T21:38:48.990Z,100502.34
2017-07-06T21:41:18.853Z,100533.03
2017-07-06T21:43:47.942Z,100537.76
2017-07-06T21:46:17.015Z,100546.07
2017-07-06T21:48:46.143Z,100543.11
2017-07-06T21:51:15.189Z,100528.23
2017-07-06T21:53:44.242Z,100522.31
2017-07-06T21:56:13.323Z,100505.50
2017-07-06T21:58:42.429Z,100497.75
2017-07-06T22:01:12.159Z,100500.31
2017-07-06T22:03:41.213Z,100511.59
2017-07-06T22:06:10.852Z,100537.48
2017-07-06T22:08:39.971Z,100563.97
2017-07-06T22:11:09.133Z,100556.85
2017-07-06T22:13:38.220Z,100543.22
2017-07-06T22:16:07.275Z,100523.81
2017-07-06T22:18:36.312Z,100510.55
2017-07-06T22:21:05.785Z,100489.59
2017-07-06T22:23:35.564Z,100478.13
2017-07-06T22:26:05.412Z,100487.03
2017-07-06T22:28:34.505Z,100511.33
2017-07-06T22:31:03.613Z,100535.64
2017-07-06T22:33:32.686Z,100554.98
2017-07-06T22:36:01.753Z,100568.95
2017-07-06T22:38:30.851Z,100575.09
2017-07-06T22:40:59.900Z,100566.78
2017-07-06T22:43:28.981Z,100560.66
2017-07-06T22:45:58.076Z,100561.02
2017-07-06T22:48:27.157Z,100563.20
2017-07-06T22:50:56.245Z,100574.86
2017-07-06T22:53:25.284Z,100586.09
2017-07-06T22:55:54.341Z,100590.43
2017-07-06T22:58:23.445Z,100592.41
2017-07-06T23:00:52.531Z,100586.05
2017-07-06T23:03:21.617Z,100586.64
2017-07-06T23:05:51.465Z,100608.34
2017-07-06T23:08:20.572Z,100620.38
2017-07-06T23:10:49.645Z,100627.27
2017-07-06T23:13:18.715Z,100626.70
2017-07-06T23:15:48.536Z,100600.23
2017-07-06T23:18:17.609Z,100591.16
2017-07-06T23:20:47.875Z,100571.03
2017-07-06T23:23:17.980Z,100529.34
2017-07-06T23:25:47.073Z,100498.47
2017-07-06T23:28:16.153Z,100470.81
2017-07-06T23:30:45.990Z,100448.69
2017-07-06T23:33:15.091Z,100429.73
2017-07-06T23:35:44.372Z,100410.96
2017-07-06T23:38:14.199Z,100408.98
2017-07-06T23:40:43.306Z,100394.77
2017-07-06T23:43:12.401Z,100392.77
2017-07-06T23:45:41.471Z,100410.34
2017-07-06T23:48:10.549Z,100423.38
2017-07-06T23:50:40.395Z,100420.82
2017-07-06T23:53:09.464Z,100423.98
2017-07-06T23:55:39.345Z,100408.38
2017-07-06T23:58:08.415Z,100391.56
